createdAt,value
2018-09-27T00:00:58.718Z,99.99
2018-09-27T00:01:58.695Z,99.99
2018-09-27T00:02:58.716Z,99.99
2018-09-27T00:03:58.762Z,99.99
2018-09-27T00:04:58.766Z,99.99
2018-09-27T00:05:58.761Z,99.99
2018-09-27T00:06:58.759Z,99.99
2018-09-27T00:07:58.737Z,99.99
2018-09-27T00:08:58.726Z,99.99
2018-09-27T00:09:58.714Z,99.99
2018-09-27T00:10:58.864Z,99.99
2018-09-27T00:11:58.730Z,99.99
2018-09-27T00:12:58.746Z,99.99
2018-09-27T00:13:58.762Z,99.99
2018-09-27T00:14:58.744Z,99.99
2018-09-27T00:15:58.731Z,99.99
2018-09-27T00:16:58.714Z,99.99
2018-09-27T00:17:58.747Z,98.61
2018-09-27T00:18:58.743Z,98.61
2018-09-27T00:19:58.739Z,99.99
2018-09-27T00:20:58.728Z,99.99
2018-09-27T00:21:58.736Z,99.99
2018-09-27T00:22:58.736Z,99.76
2018-09-27T00:23:58.722Z,98.71
2018-09-27T00:24:58.726Z,99.08
2018-09-27T00:25:58.712Z,99.99
2018-09-27T00:26:58.735Z,99.99
2018-09-27T00:27:58.758Z,99.99
2018-09-27T00:28:58.761Z,99.99
2018-09-27T00:29:58.762Z,99.99
2018-09-27T00:30:58.750Z,99.99
2018-09-27T00:31:58.761Z,99.99
2018-09-27T00:32:58.761Z,99.99
2018-09-27T00:33:58.757Z,99.99
2018-09-27T00:34:58.746Z,99.99
2018-09-27T00:35:58.736Z,99.99
2018-09-27T00:36:58.732Z,99.99
2018-09-27T00:37:58.738Z,99.99
2018-09-27T00:38:58.775Z,99.99
2018-09-27T00:39:58.833Z,99.99
2018-09-27T00:40:58.821Z,99.99
2018-09-27T00:41:58.736Z,99.99
2018-09-27T00:42:58.778Z,99.99
2018-09-27T00:43:58.768Z,99.99
2018-09-27T00:44:58.812Z,99.99
2018-09-27T00:45:58.856Z,99.99
2018-09-27T00:46:58.838Z,99.99
2018-09-27T00:47:58.770Z,99.99
2018-09-27T00:48:58.886Z,99.99
2018-09-27T00:49:58.776Z,99.99
2018-09-27T00:50:58.765Z,99.99
2018-09-27T00:51:58.792Z,99.85
2018-09-27T00:52:58.787Z,99.57
2018-09-27T00:53:58.779Z,99.66
2018-09-27T00:54:58.766Z,98.80
2018-09-27T00:55:58.862Z,99.18
2018-09-27T00:56:58.865Z,98.23
2018-09-27T00:57:58.781Z,97.18
2018-09-27T00:58:58.796Z,98.13
2018-09-27T00:59:58.857Z,98.61
2018-09-27T01:00:58.853Z,98.90
2018-09-27T01:01:58.799Z,98.13
2018-09-27T01:02:58.808Z,98.99
2018-09-27T01:03:58.813Z,98.37
2018-09-27T01:04:58.846Z,97.47
2018-09-27T01:05:58.812Z,97.56
2018-09-27T01:06:58.789Z,95.61
2018-09-27T01:07:58.835Z,96.66
2018-09-27T01:08:58.819Z,97.08
2018-09-27T01:09:58.825Z,95.22
2018-09-27T01:10:58.830Z,96.32
2018-09-27T01:11:58.850Z,96.27
2018-09-27T01:12:58.809Z,96.27
2018-09-27T01:13:58.793Z,96.17
2018-09-27T01:14:58.802Z,95.41
2018-09-27T01:15:58.810Z,95.32
2018-09-27T01:16:58.800Z,97.51
2018-09-27T01:17:58.839Z,95.98
2018-09-27T01:18:58.835Z,95.61
2018-09-27T01:19:58.798Z,95.89
2018-09-27T01:20:58.822Z,95.22
2018-09-27T01:21:58.888Z,96.08
2018-09-27T01:22:58.838Z,96.37
2018-09-27T01:23:58.817Z,95.12
2018-09-27T01:24:58.828Z,94.84
2018-09-27T01:25:58.827Z,93.98
2018-09-27T01:26:58.817Z,92.93
2018-09-27T01:27:58.905Z,91.31
2018-09-27T01:28:58.837Z,91.41
2018-09-27T01:29:58.828Z,91.60
2018-09-27T01:30:58.861Z,91.88
2018-09-27T01:31:58.818Z,89.97
2018-09-27T01:32:58.838Z,92.07
2018-09-27T01:33:58.858Z,91.88
2018-09-27T01:34:58.844Z,92.07
2018-09-27T01:35:58.867Z,90.64
2018-09-27T01:36:58.853Z,91.21
2018-09-27T01:37:58.848Z,91.78
2018-09-27T01:38:58.820Z,91.41
2018-09-27T01:39:58.834Z,92.46
2018-09-27T01:40:58.869Z,90.73
2018-09-27T01:41:58.846Z,89.12
2018-09-27T01:42:58.861Z,91.02
2018-09-27T01:43:58.860Z,88.92
2018-09-27T01:44:58.865Z,88.54
2018-09-27T01:45:58.850Z,90.26
2018-09-27T01:46:58.876Z,88.35
2018-09-27T01:47:58.878Z,88.83
2018-09-27T01:48:58.828Z,89.02
2018-09-27T01:49:58.830Z,90.36
2018-09-27T01:50:58.856Z,89.21
2018-09-27T01:51:58.833Z,90.45
2018-09-27T01:52:58.856Z,88.16
2018-09-27T01:53:58.846Z,89.97
2018-09-27T01:54:58.904Z,89.88
2018-09-27T01:55:58.868Z,91.21
2018-09-27T01:56:58.897Z,93.22
2018-09-27T01:57:58.911Z,93.12
2018-09-27T01:58:58.861Z,91.69
2018-09-27T01:59:58.866Z,92.36
2018-09-27T02:00:58.839Z,91.21
2018-09-27T02:01:58.880Z,91.88
2018-09-27T02:02:58.872Z,91.50
2018-09-27T02:03:58.866Z,90.36
2018-09-27T02:04:58.867Z,90.45
2018-09-27T02:05:58.864Z,90.73
2018-09-27T02:06:58.849Z,91.88
2018-09-27T02:07:58.863Z,90.83
2018-09-27T02:08:58.857Z,91.31
2018-09-27T02:10:00.550Z,92.17
2018-09-27T02:10:58.856Z,91.50
2018-09-27T02:11:58.904Z,90.73
2018-09-27T02:12:58.867Z,91.41
2018-09-27T02:13:58.882Z,90.55
2018-09-27T02:14:58.877Z,89.50
2018-09-27T02:15:59.029Z,91.12
2018-09-27T02:16:58.889Z,90.07
2018-09-27T02:17:58.889Z,90.83
2018-09-27T02:18:58.867Z,87.87
2018-09-27T02:19:58.918Z,89.02
2018-09-27T02:20:58.862Z,89.50
2018-09-27T02:21:58.931Z,89.88
2018-09-27T02:22:58.921Z,89.40
2018-09-27T02:23:58.946Z,89.50
2018-09-27T02:24:58.925Z,89.31
2018-09-27T02:25:58.913Z,88.26
2018-09-27T02:26:58.901Z,87.87
2018-09-27T02:27:58.866Z,87.59
2018-09-27T02:28:58.881Z,89.02
2018-09-27T02:29:58.961Z,88.83
2018-09-27T02:30:58.962Z,88.83
2018-09-27T02:31:58.956Z,88.73
2018-09-27T02:32:58.877Z,87.59
2018-09-27T02:33:58.959Z,87.21
2018-09-27T02:34:58.949Z,87.40
2018-09-27T02:35:58.947Z,87.11
2018-09-27T02:36:58.957Z,85.49
2018-09-27T02:37:59.038Z,85.30
2018-09-27T02:38:58.923Z,85.68
2018-09-27T02:39:58.917Z,86.06
2018-09-27T02:40:58.962Z,86.06
2018-09-27T02:41:58.945Z,86.25
2018-09-27T02:42:58.941Z,85.58
2018-09-27T02:43:58.939Z,86.44
2018-09-27T02:44:58.955Z,86.16
2018-09-27T02:45:58.970Z,90.07
2018-09-27T02:46:58.964Z,88.35
2018-09-27T02:47:58.967Z,89.54
2018-09-27T02:48:58.976Z,91.60
2018-09-27T02:49:58.965Z,90.83
2018-09-27T02:50:58.947Z,92.07
2018-09-27T02:51:58.946Z,93.22
2018-09-27T02:52:58.951Z,92.26
2018-09-27T02:53:58.928Z,91.31
2018-09-27T02:54:58.924Z,91.64
2018-09-27T02:55:58.962Z,91.41
2018-09-27T02:56:58.950Z,90.69
2018-09-27T02:57:58.979Z,90.36
2018-09-27T02:58:58.979Z,89.69
2018-09-27T02:59:58.919Z,91.93
2018-09-27T03:00:58.918Z,92.50
2018-09-27T03:01:58.939Z,91.74
2018-09-27T03:02:58.961Z,92.02
2018-09-27T03:03:58.967Z,95.46
2018-09-27T03:04:58.982Z,94.89
2018-09-27T03:05:58.913Z,94.31
2018-09-27T03:06:58.938Z,95.08
2018-09-27T03:07:58.943Z,94.89
2018-09-27T03:08:58.933Z,94.79
2018-09-27T03:09:58.974Z,95.84
2018-09-27T03:10:58.933Z,96.51
2018-09-27T03:11:58.932Z,97.47
2018-09-27T03:12:58.950Z,95.75
2018-09-27T03:13:59.040Z,95.56
2018-09-27T03:14:58.933Z,94.51
2018-09-27T03:15:58.959Z,95.08
2018-09-27T03:16:58.923Z,94.70
2018-09-27T03:17:58.978Z,94.70
2018-09-27T03:18:58.960Z,94.60
2018-09-27T03:19:58.948Z,96.51
2018-09-27T03:20:58.962Z,97.03
2018-09-27T03:21:58.950Z,97.61
2018-09-27T03:22:58.949Z,98.66
2018-09-27T03:23:58.957Z,99.99
2018-09-27T03:24:58.936Z,98.75
2018-09-27T03:25:59.019Z,99.99
2018-09-27T03:26:58.992Z,99.99
2018-09-27T03:27:58.942Z,99.99
2018-09-27T03:28:58.946Z,99.99
2018-09-27T03:29:58.966Z,99.99
2018-09-27T03:30:58.978Z,99.99
2018-09-27T03:31:59.024Z,99.99
2018-09-27T03:32:58.957Z,99.99
2018-09-27T03:33:58.977Z,99.99
2018-09-27T03:34:58.987Z,99.99
2018-09-27T03:35:58.992Z,99.99
2018-09-27T03:36:58.987Z,99.99
2018-09-27T03:37:58.976Z,99.99
2018-09-27T03:38:58.970Z,99.99
2018-09-27T03:39:58.983Z,99.99
2018-09-27T03:40:58.991Z,99.99
2018-09-27T03:41:59.006Z,99.99
2018-09-27T03:42:58.964Z,99.99
2018-09-27T03:43:59.000Z,99.99
2018-09-27T03:44:59.017Z,99.99
2018-09-27T03:45:58.981Z,99.99
2018-09-27T03:46:59.000Z,99.99
2018-09-27T03:47:58.998Z,99.99
2018-09-27T03:48:58.999Z,99.99
2018-09-27T03:49:59.022Z,99.99
2018-09-27T03:50:59.010Z,99.99
2018-09-27T03:51:59.015Z,99.99
2018-09-27T03:52:59.045Z,99.99
2018-09-27T03:53:59.000Z,99.99
2018-09-27T03:54:58.980Z,99.99
2018-09-27T03:55:59.024Z,99.99
2018-09-27T03:56:59.009Z,99.99
2018-09-27T03:57:59.027Z,99.99
2018-09-27T03:58:59.027Z,99.99
2018-09-27T03:59:59.016Z,99.99
2018-09-27T04:00:58.988Z,99.99
2018-09-27T04:01:59.012Z,99.99
2018-09-27T04:02:59.012Z,99.99
2018-09-27T04:03:59.018Z,99.99
2018-09-27T04:04:59.000Z,99.99
2018-09-27T04:05:58.994Z,99.99
2018-09-27T04:06:59.029Z,99.99
2018-09-27T04:07:59.020Z,99.99
2018-09-27T04:08:59.039Z,99.99
2018-09-27T04:09:59.026Z,99.99
2018-09-27T04:10:59.007Z,99.99
2018-09-27T04:11:59.049Z,99.99
2018-09-27T04:12:58.986Z,99.99
2018-09-27T04:13:59.012Z,99.99
2018-09-27T04:14:59.020Z,99.99
2018-09-27T04:15:59.054Z,99.99
2018-09-27T04:16:59.017Z,99.99
2018-09-27T04:17:59.012Z,99.99
2018-09-27T04:18:59.072Z,99.99
2018-09-27T04:19:59.070Z,99.99
2018-09-27T04:20:59.036Z,99.99
2018-09-27T04:21:59.061Z,99.99
2018-09-27T04:22:59.045Z,99.99
2018-09-27T04:23:59.996Z,99.99
2018-09-27T04:24:59.034Z,99.99
2018-09-27T04:25:59.067Z,99.99
2018-09-27T04:26:59.054Z,99.99
2018-09-27T04:27:59.050Z,99.99
2018-09-27T04:28:59.028Z,99.99
2018-09-27T04:29:59.064Z,99.99
2018-09-27T04:30:59.024Z,99.99
2018-09-27T04:31:59.043Z,99.99
2018-09-27T04:32:59.027Z,99.99
2018-09-27T04:33:59.053Z,99.99
2018-09-27T04:34:59.031Z,99.99
2018-09-27T04:35:59.026Z,99.99
2018-09-27T04:36:59.084Z,99.99
2018-09-27T04:37:59.043Z,99.99
2018-09-27T04:38:59.077Z,99.99
2018-09-27T04:39:59.080Z,99.99
2018-09-27T04:40:59.092Z,99.99
2018-09-27T04:41:59.032Z,99.99
2018-09-27T04:42:59.066Z,99.99
2018-09-27T04:43:59.067Z,99.99
2018-09-27T04:44:59.085Z,99.99
2018-09-27T04:45:59.052Z,99.99
2018-09-27T04:46:59.119Z,99.99
2018-09-27T04:47:59.067Z,99.99
2018-09-27T04:48:59.062Z,99.99
2018-09-27T04:49:59.066Z,99.99
2018-09-27T04:50:59.085Z,99.99
2018-09-27T04:51:59.071Z,99.99
2018-09-27T04:52:59.053Z,99.99
2018-09-27T04:53:59.096Z,99.99
2018-09-27T04:54:59.095Z,99.99
2018-09-27T04:55:59.077Z,99.99
2018-09-27T04:56:59.168Z,99.99
2018-09-27T04:57:59.074Z,99.99
2018-09-27T04:58:59.083Z,99.99
2018-09-27T04:59:59.098Z,99.99
2018-09-27T05:00:59.115Z,99.99
2018-09-27T05:01:59.104Z,99.99
2018-09-27T05:02:59.103Z,99.99
2018-09-27T05:03:59.080Z,99.99
2018-09-27T05:04:59.120Z,99.99
2018-09-27T05:05:59.119Z,99.99
2018-09-27T05:06:59.092Z,99.99
2018-09-27T05:07:59.138Z,99.99
2018-09-27T05:08:59.110Z,99.99
2018-09-27T05:09:59.092Z,99.99
2018-09-27T05:10:59.078Z,99.99
2018-09-27T05:11:59.121Z,99.99
2018-09-27T05:12:59.106Z,99.99
2018-09-27T05:13:59.101Z,99.99
2018-09-27T05:14:59.142Z,99.99
2018-09-27T05:15:59.172Z,99.99
2018-09-27T05:16:59.121Z,99.99
2018-09-27T05:17:59.133Z,99.99
2018-09-27T05:18:59.123Z,99.99
2018-09-27T05:19:59.102Z,99.99
2018-09-27T05:20:59.138Z,99.99
2018-09-27T05:21:59.132Z,99.99
2018-09-27T05:22:59.120Z,99.99
2018-09-27T05:23:59.133Z,99.99
2018-09-27T05:24:59.144Z,99.99
2018-09-27T05:25:59.174Z,99.99
2018-09-27T05:26:59.126Z,99.99
2018-09-27T05:27:59.121Z,99.99
2018-09-27T05:28:59.156Z,99.99
2018-09-27T05:29:59.105Z,99.99
2018-09-27T05:30:59.124Z,99.99
2018-09-27T05:31:59.132Z,99.99
2018-09-27T05:32:59.198Z,99.99
2018-09-27T05:33:59.205Z,99.99
2018-09-27T05:34:59.132Z,99.99
2018-09-27T05:35:59.108Z,99.99
2018-09-27T05:36:59.132Z,99.99
2018-09-27T05:37:59.115Z,99.99
2018-09-27T05:38:59.162Z,99.99
2018-09-27T05:39:59.158Z,99.99
2018-09-27T05:40:59.187Z,99.99
2018-09-27T05:41:59.158Z,99.99
2018-09-27T05:42:59.179Z,99.99
2018-09-27T05:43:59.149Z,99.99
2018-09-27T05:44:59.127Z,99.99
2018-09-27T05:45:59.178Z,99.99
2018-09-27T05:46:59.137Z,99.99
2018-09-27T05:47:59.147Z,99.99
2018-09-27T05:48:59.156Z,99.99
2018-09-27T05:49:59.257Z,99.99
2018-09-27T05:50:59.172Z,99.99
2018-09-27T05:51:59.218Z,99.99
2018-09-27T05:52:59.145Z,99.99
2018-09-27T05:53:59.225Z,99.99
2018-09-27T05:54:59.163Z,99.99
2018-09-27T05:55:59.212Z,99.99
2018-09-27T05:56:59.182Z,99.99
2018-09-27T05:57:59.172Z,99.99
2018-09-27T05:58:59.197Z,99.99
2018-09-27T05:59:59.238Z,99.99
2018-09-27T06:00:59.183Z,99.99
2018-09-27T06:01:59.289Z,99.99
2018-09-27T06:02:59.205Z,99.99
2018-09-27T06:03:59.153Z,99.99
2018-09-27T06:04:59.174Z,99.99
2018-09-27T06:05:59.173Z,99.99
2018-09-27T06:06:59.155Z,99.99
2018-09-27T06:07:59.161Z,99.99
2018-09-27T06:08:59.194Z,99.99
2018-09-27T06:09:59.173Z,99.99
2018-09-27T06:10:59.168Z,99.99
2018-09-27T06:11:59.179Z,99.99
2018-09-27T06:12:59.178Z,99.99
2018-09-27T06:13:59.172Z,99.99
2018-09-27T06:14:59.212Z,99.99
2018-09-27T06:15:59.224Z,99.99
2018-09-27T06:16:59.194Z,99.99
2018-09-27T06:17:59.254Z,99.99
2018-09-27T06:18:59.213Z,99.99
2018-09-27T06:19:59.244Z,99.99
2018-09-27T06:20:59.225Z,99.99
2018-09-27T06:21:59.174Z,99.99
2018-09-27T06:22:59.203Z,99.99
2018-09-27T06:23:59.226Z,99.99
2018-09-27T06:24:59.186Z,99.99
2018-09-27T06:25:59.250Z,99.99
2018-09-27T06:26:59.191Z,99.99
2018-09-27T06:27:59.273Z,99.99
2018-09-27T06:28:59.225Z,99.99
2018-09-27T06:29:59.212Z,99.99
2018-09-27T06:30:59.201Z,99.99
2018-09-27T06:31:59.220Z,99.99
2018-09-27T06:32:59.241Z,99.99
2018-09-27T06:33:59.327Z,99.99
2018-09-27T06:34:59.274Z,99.99
2018-09-27T06:35:59.963Z,99.99
2018-09-27T06:36:59.229Z,99.99
2018-09-27T06:37:59.286Z,99.99
2018-09-27T06:38:59.220Z,99.99
2018-09-27T06:39:59.264Z,99.99
2018-09-27T06:40:59.248Z,99.99
2018-09-27T06:41:59.220Z,99.99
2018-09-27T06:42:59.201Z,99.99
2018-09-27T06:43:59.285Z,99.99
2018-09-27T06:44:59.244Z,99.99
2018-09-27T06:46:01.094Z,99.99
2018-09-27T06:46:59.322Z,99.99
2018-09-27T06:47:59.274Z,99.99
2018-09-27T06:48:59.265Z,99.99
2018-09-27T06:49:59.266Z,99.99
2018-09-27T06:50:59.241Z,99.99
2018-09-27T06:51:59.264Z,99.99
2018-09-27T06:52:59.271Z,99.99
2018-09-27T06:53:59.266Z,99.99
2018-09-27T06:54:59.309Z,99.99
2018-09-27T06:55:59.301Z,99.99
2018-09-27T06:56:59.253Z,99.99
2018-09-27T06:57:59.268Z,99.99
2018-09-27T06:58:59.243Z,99.99
2018-09-27T06:59:59.271Z,99.99
2018-09-27T07:00:59.322Z,98.62
2018-09-27T07:01:59.347Z,93.92
2018-09-27T07:02:59.255Z,88.35
2018-09-27T07:03:59.274Z,85.32
2018-09-27T07:04:59.405Z,83.06
2018-09-27T07:05:59.314Z,79.48
2018-09-27T07:06:59.304Z,78.02
2018-09-27T07:07:59.306Z,76.17
2018-09-27T07:08:59.309Z,73.75
2018-09-27T07:09:59.372Z,72.73
2018-09-27T07:10:59.282Z,70.57
2018-09-27T07:11:59.371Z,71.38
2018-09-27T07:12:59.305Z,71.12
2018-09-27T07:13:59.274Z,69.42
2018-09-27T07:14:59.276Z,67.94
2018-09-27T07:15:59.555Z,67.75
2018-09-27T07:16:59.274Z,67.14
2018-09-27T07:17:59.293Z,66.75
2018-09-27T07:18:59.289Z,65.53
2018-09-27T07:19:59.274Z,65.11
2018-09-27T07:20:59.305Z,64.82
2018-09-27T07:21:59.372Z,65.24
2018-09-27T07:23:00.260Z,66.17
2018-09-27T07:23:59.308Z,65.11
2018-09-27T07:24:59.429Z,65.78
2018-09-27T07:26:01.653Z,66.33
2018-09-27T07:26:59.542Z,67.62
2018-09-27T07:27:59.328Z,67.27
2018-09-27T07:28:59.368Z,66.63
2018-09-27T07:29:59.360Z,67.27
2018-09-27T07:30:59.427Z,65.34
2018-09-27T07:31:59.324Z,65.14
2018-09-27T07:32:59.400Z,65.63
2018-09-27T07:33:59.402Z,65.05
2018-09-27T07:34:59.513Z,64.76
2018-09-27T07:35:59.394Z,65.75
2018-09-27T07:36:59.742Z,65.05
2018-09-27T07:37:59.400Z,65.72
2018-09-27T07:39:07.079Z,64.95
2018-09-27T07:40:00.459Z,64.66
2018-09-27T07:40:59.416Z,65.17
2018-09-27T07:43:07.951Z,66.01
2018-09-27T07:43:59.485Z,66.11
2018-09-27T07:44:59.385Z,63.56
2018-09-27T07:45:59.448Z,65.20
2018-09-27T07:46:59.393Z,65.66
2018-09-27T07:47:59.439Z,64.11
2018-09-27T07:48:59.475Z,64.27
2018-09-27T07:49:59.550Z,65.27
2018-09-27T07:50:59.519Z,64.43
2018-09-27T07:51:59.480Z,62.88
2018-09-27T07:52:59.485Z,61.46
2018-09-27T07:53:59.515Z,62.11
2018-09-27T07:54:59.566Z,62.88
2018-09-27T07:55:59.451Z,61.85
2018-09-27T07:56:59.464Z,61.66
2018-09-27T07:57:59.461Z,60.72
2018-09-27T07:58:59.643Z,60.82
2018-09-27T08:02:00.889Z,60.04
2018-09-27T08:03:00.256Z,58.78
2018-09-27T08:03:59.526Z,59.75
2018-09-27T08:04:59.767Z,59.63
2018-09-27T08:05:59.650Z,61.88
2018-09-27T08:06:59.537Z,60.68
2018-09-27T08:07:59.584Z,60.39
2018-09-27T08:08:59.600Z,60.58
2018-09-27T08:09:59.567Z,59.23
2018-09-27T08:10:59.585Z,60.33
2018-09-27T08:11:59.780Z,59.88
2018-09-27T08:12:59.672Z,58.45
2018-09-27T08:13:59.659Z,57.68
2018-09-27T08:14:59.646Z,57.68
2018-09-27T08:15:59.690Z,57.09
2018-09-27T08:16:59.655Z,59.43
2018-09-27T08:17:59.660Z,60.27
2018-09-27T08:19:01.380Z,60.11
2018-09-27T08:19:59.717Z,59.82
2018-09-27T08:20:59.708Z,60.33
2018-09-27T08:21:59.714Z,60.46
2018-09-27T08:23:00.271Z,58.48
2018-09-27T08:23:59.775Z,57.97
2018-09-27T08:24:59.989Z,57.75
2018-09-27T08:25:59.769Z,59.00
2018-09-27T08:27:00.297Z,59.17
2018-09-27T08:27:59.755Z,59.13
2018-09-27T08:28:59.747Z,58.94
2018-09-27T08:29:59.766Z,60.00
2018-09-27T08:31:00.042Z,57.83
2018-09-27T08:31:59.973Z,57.64
2018-09-27T08:33:00.617Z,56.64
2018-09-27T08:34:01.427Z,57.32
2018-09-27T08:35:09.036Z,57.83
2018-09-27T08:36:07.707Z,57.93
2018-09-27T08:37:59.891Z,54.97
2018-09-27T08:39:00.099Z,54.75
2018-09-27T08:39:59.865Z,57.00
2018-09-27T08:41:00.108Z,56.93
2018-09-27T08:41:59.895Z,56.96
2018-09-27T08:42:59.861Z,56.43
2018-09-27T08:44:00.503Z,55.43
2018-09-27T08:45:00.165Z,56.47
2018-09-27T08:46:01.064Z,57.15
2018-09-27T08:47:00.484Z,56.92
2018-09-27T08:48:00.354Z,54.94
2018-09-27T08:48:59.980Z,55.50
2018-09-27T08:49:59.934Z,55.50
2018-09-27T08:51:00.095Z,56.70
2018-09-27T08:51:59.966Z,54.75
2018-09-27T08:52:59.994Z,54.97
2018-09-27T08:53:59.982Z,53.52
2018-09-27T08:55:00.030Z,53.66
2018-09-27T08:56:00.154Z,53.52
2018-09-27T08:57:00.286Z,54.66
2018-09-27T08:58:01.684Z,55.28
2018-09-27T08:59:00.535Z,57.68
2018-09-27T09:00:21.098Z,57.29
2018-09-27T09:02:00.757Z,56.01
2018-09-27T09:03:00.460Z,54.75
2018-09-27T09:04:00.517Z,54.36
2018-09-27T09:08:35.568Z,55.58
2018-09-27T09:10:35.842Z,55.96
2018-09-27T09:11:37.045Z,56.60
2018-09-27T09:14:38.445Z,51.40
2018-09-27T09:15:36.527Z,51.97
2018-09-27T09:16:35.899Z,53.71
2018-09-27T09:21:10.790Z,51.99
2018-09-27T09:23:08.319Z,52.25
2018-09-27T09:24:08.550Z,52.55
2018-09-27T09:25:08.202Z,53.42
2018-09-27T09:26:08.819Z,53.20
2018-09-27T09:27:09.194Z,52.45
2018-09-27T09:28:08.400Z,53.75
2018-09-27T09:29:08.488Z,54.99
2018-09-27T09:30:08.309Z,55.53
2018-09-27T09:31:08.508Z,54.88
2018-09-27T09:34:08.981Z,54.80
2018-09-27T09:35:08.598Z,54.72
2018-09-27T09:36:08.774Z,54.75
2018-09-27T09:37:08.381Z,52.55
2018-09-27T09:38:08.659Z,53.32
2018-09-27T09:39:08.397Z,53.74
2018-09-27T09:40:08.576Z,53.52
2018-09-27T09:41:08.769Z,55.49
2018-09-27T09:42:08.903Z,56.24
2018-09-27T09:43:09.333Z,53.57
2018-09-27T09:44:09.079Z,52.57
2018-09-27T09:45:09.563Z,53.52
2018-09-27T09:47:42.049Z,52.11
2018-09-27T09:49:41.833Z,49.97
2018-09-27T09:50:41.241Z,50.14
2018-09-27T09:51:41.669Z,50.31
2018-09-27T09:55:13.597Z,50.46
2018-09-27T09:56:13.675Z,49.58
2018-09-27T09:57:13.612Z,49.97
2018-09-27T09:59:14.441Z,51.28
2018-09-27T10:03:47.994Z,50.92
2018-09-27T10:04:46.035Z,53.47
2018-09-27T10:05:46.075Z,52.03
2018-09-27T10:06:46.074Z,50.14
2018-09-27T10:07:46.105Z,49.87
2018-09-27T10:08:46.165Z,48.80
2018-09-27T10:09:46.137Z,49.00
2018-09-27T10:10:46.136Z,49.10
2018-09-27T10:11:46.184Z,48.47
2018-09-27T10:12:46.177Z,50.14
2018-09-27T10:13:46.206Z,48.00
2018-09-27T10:14:46.220Z,46.84
2018-09-27T10:15:46.245Z,47.54
2018-09-27T10:16:46.246Z,46.86
2018-09-27T10:17:46.247Z,46.77
2018-09-27T10:18:46.259Z,46.84
2018-09-27T10:19:46.275Z,49.24
2018-09-27T10:20:46.276Z,50.53
2018-09-27T10:21:46.396Z,48.49
2018-09-27T10:22:46.331Z,50.21
2018-09-27T10:23:46.346Z,47.78
2018-09-27T10:24:46.356Z,47.32
2018-09-27T10:25:46.366Z,46.84
2018-09-27T10:26:46.379Z,46.84
2018-09-27T10:27:46.411Z,47.05
2018-09-27T10:28:46.418Z,46.47
2018-09-27T10:29:46.440Z,46.88
2018-09-27T10:30:46.458Z,46.84
2018-09-27T10:31:46.473Z,47.91
2018-09-27T10:32:46.462Z,46.94
2018-09-27T10:38:23.504Z,47.88
2018-09-27T10:39:23.395Z,47.76
2018-09-27T10:40:23.423Z,48.08
2018-09-27T10:41:23.447Z,47.13
2018-09-27T10:44:28.130Z,47.13
2018-09-27T10:45:28.633Z,47.86
2018-09-27T10:46:39.124Z,45.95
2018-09-27T10:47:27.614Z,44.81
2018-09-27T10:48:23.600Z,44.38
2018-09-27T10:49:23.567Z,43.62
2018-09-27T10:50:23.574Z,44.20
2018-09-27T10:51:23.652Z,44.89
2018-09-27T10:52:23.630Z,46.23
2018-09-27T10:53:23.655Z,47.86
2018-09-27T10:54:23.667Z,49.00
2018-09-27T10:55:23.672Z,49.71
2018-09-27T10:56:23.757Z,49.07
2018-09-27T10:57:23.690Z,48.22
2018-09-27T10:58:23.709Z,48.88
2018-09-27T10:59:23.735Z,49.80
2018-09-27T11:00:23.766Z,46.78
2018-09-27T11:01:23.771Z,46.86
2018-09-27T11:02:23.790Z,48.25
2018-09-27T11:03:23.797Z,49.05
2018-09-27T11:04:23.809Z,46.64
2018-09-27T11:05:23.831Z,48.00
2018-09-27T11:06:23.842Z,47.91
2018-09-27T11:07:23.856Z,47.25
2018-09-27T11:08:23.875Z,46.55
2018-09-27T11:09:23.892Z,47.91
2018-09-27T11:10:23.915Z,46.78
2018-09-27T11:11:23.952Z,46.61
2018-09-27T11:12:23.948Z,46.54
2018-09-27T11:13:23.976Z,45.51
2018-09-27T11:14:23.986Z,45.20
2018-09-27T11:15:24.019Z,45.86
2018-09-27T11:16:24.050Z,46.73
2018-09-27T11:17:24.062Z,47.27
2018-09-27T11:18:24.044Z,48.22
2018-09-27T11:19:24.136Z,48.20
2018-09-27T11:20:24.139Z,47.13
2018-09-27T11:21:24.093Z,46.74
2018-09-27T11:22:24.141Z,47.81
2018-09-27T11:23:24.136Z,47.64
2018-09-27T11:24:24.221Z,48.03
2018-09-27T11:25:24.618Z,48.58
2018-09-27T11:26:24.262Z,50.41
2018-09-27T11:27:24.248Z,50.51
2018-09-27T11:28:24.213Z,47.83
2018-09-27T11:29:24.215Z,49.24
2018-09-27T11:30:24.212Z,50.89
2018-09-27T11:31:24.227Z,51.47
2018-09-27T11:32:24.237Z,51.45
2018-09-27T11:33:24.269Z,49.97
2018-09-27T11:34:24.267Z,51.13
2018-09-27T11:35:24.303Z,50.92
2018-09-27T11:36:24.318Z,51.30
2018-09-27T11:37:24.321Z,53.50
2018-09-27T11:38:24.368Z,53.69
2018-09-27T11:39:24.310Z,54.66
2018-09-27T11:40:24.327Z,54.85
2018-09-27T11:41:24.346Z,54.57
2018-09-27T11:42:24.414Z,54.08
2018-09-27T11:43:24.421Z,54.75
2018-09-27T11:44:24.411Z,54.88
2018-09-27T11:45:24.382Z,55.27
2018-09-27T11:46:24.397Z,55.15
2018-09-27T11:47:24.401Z,53.02
2018-09-27T11:48:24.421Z,52.73
2018-09-27T11:49:24.475Z,53.11
2018-09-27T11:50:24.451Z,53.41
2018-09-27T11:51:25.731Z,54.47
2018-09-27T11:52:24.459Z,54.08
2018-09-27T11:53:24.444Z,55.15
2018-09-27T11:54:24.466Z,55.15
2018-09-27T11:55:24.463Z,51.95
2018-09-27T11:56:24.460Z,52.05
2018-09-27T11:57:24.497Z,53.21
2018-09-27T11:58:24.475Z,51.86
2018-09-27T11:59:24.498Z,52.36
2018-09-27T12:00:24.545Z,52.34
2018-09-27T12:01:24.525Z,53.50
2018-09-27T12:02:24.520Z,53.99
2018-09-27T12:03:24.538Z,53.31
2018-09-27T12:04:24.531Z,50.02
2018-09-27T12:05:24.533Z,48.35
2018-09-27T12:06:24.572Z,48.76
2018-09-27T12:07:24.561Z,48.76
2018-09-27T12:08:24.544Z,48.76
2018-09-27T12:09:24.565Z,49.82
2018-09-27T12:10:24.552Z,49.34
2018-09-27T12:11:24.575Z,49.32
2018-09-27T12:12:24.586Z,49.70
2018-09-27T12:13:24.617Z,51.56
2018-09-27T12:14:24.633Z,51.95
2018-09-27T12:15:24.579Z,50.98
2018-09-27T12:16:24.604Z,51.40
2018-09-27T12:17:24.686Z,51.66
2018-09-27T12:18:24.632Z,51.01
2018-09-27T12:19:24.612Z,51.88
2018-09-27T12:20:24.606Z,51.95
2018-09-27T12:21:24.629Z,52.34
2018-09-27T12:22:24.631Z,52.08
2018-09-27T12:23:24.634Z,52.14
2018-09-27T12:24:24.653Z,51.08
2018-09-27T12:25:24.784Z,51.86
2018-09-27T12:26:24.656Z,51.47
2018-09-27T12:27:24.666Z,49.73
2018-09-27T12:28:24.710Z,47.79
2018-09-27T12:29:24.761Z,47.69
2018-09-27T12:30:25.513Z,47.02
2018-09-27T12:31:24.755Z,48.57
2018-09-27T12:32:24.698Z,49.15
2018-09-27T12:33:24.712Z,49.70
2018-09-27T12:34:24.706Z,50.09
2018-09-27T12:35:24.726Z,49.41
2018-09-27T12:36:24.784Z,49.05
2018-09-27T12:37:24.714Z,49.24
2018-09-27T12:38:24.786Z,47.99
2018-09-27T12:39:25.156Z,45.86
2018-09-27T12:40:24.724Z,47.79
2018-09-27T12:41:24.735Z,47.67
2018-09-27T12:42:24.803Z,47.58
2018-09-27T12:43:24.751Z,48.54
2018-09-27T12:44:24.839Z,47.67
2018-09-27T12:45:24.808Z,48.16
2018-09-27T12:46:24.807Z,49.70
2018-09-27T12:48:59.928Z,47.65
2018-09-27T12:49:58.862Z,49.29
2018-09-27T12:52:30.822Z,49.39
2018-09-27T12:53:30.174Z,47.67
2018-09-27T12:54:32.248Z,47.58
2018-09-27T12:55:29.418Z,46.68
2018-09-27T12:56:29.365Z,46.42
2018-09-27T12:57:29.384Z,46.97
2018-09-27T12:58:29.427Z,47.55
2018-09-27T12:59:29.404Z,46.68
2018-09-27T13:00:30.166Z,47.65
2018-09-27T13:01:29.454Z,47.55
2018-09-27T13:02:29.498Z,46.88
2018-09-27T13:03:29.432Z,47.65
2018-09-27T13:04:29.575Z,47.55
2018-09-27T13:05:29.439Z,47.53
2018-09-27T13:06:29.446Z,47.63
2018-09-27T13:07:29.456Z,49.17
2018-09-27T13:08:29.488Z,49.55
2018-09-27T13:09:29.445Z,47.63
2018-09-27T13:10:29.433Z,46.17
2018-09-27T13:11:29.466Z,46.27
2018-09-27T13:12:29.567Z,47.14
2018-09-27T13:13:29.679Z,46.75
2018-09-27T13:14:29.498Z,47.91
2018-09-27T13:15:29.472Z,48.69
2018-09-27T13:16:29.494Z,47.53
2018-09-27T13:17:29.451Z,46.85
2018-09-27T13:18:29.458Z,47.72
2018-09-27T13:19:29.560Z,47.24
2018-09-27T13:20:29.809Z,47.53
2018-09-27T13:21:29.579Z,48.49
2018-09-27T13:22:29.510Z,50.04
2018-09-27T13:23:29.710Z,49.75
2018-09-27T13:24:29.608Z,49.95
2018-09-27T13:25:29.560Z,50.23
2018-09-27T13:26:29.596Z,49.55
2018-09-27T13:27:29.498Z,48.95
2018-09-27T13:28:29.515Z,49.53
2018-09-27T13:29:29.533Z,50.31
2018-09-27T13:30:29.531Z,50.01